createdAt,value
2018-08-24T00:01:03.738Z,58.98
2018-08-24T00:03:34.008Z,59.73
2018-08-24T00:06:04.038Z,59.74
2018-08-24T00:08:33.577Z,59.77
2018-08-24T00:11:03.400Z,60.18
2018-08-24T00:13:33.008Z,61.28
2018-08-24T00:16:02.546Z,60.68
2018-08-24T00:18:32.087Z,60.37
2018-08-24T00:21:01.633Z,60.52
2018-08-24T00:23:31.208Z,62.25
2018-08-24T00:26:00.792Z,61.88
2018-08-24T00:28:30.372Z,61.66
2018-08-24T00:30:59.924Z,62.27
2018-08-24T00:33:29.471Z,63.49
2018-08-24T00:35:59.185Z,63.71
2018-08-24T00:38:28.771Z,66.46
2018-08-24T00:40:58.630Z,65.77
2018-08-24T00:43:28.168Z,66.27
2018-08-24T00:45:57.700Z,67.56
2018-08-24T00:48:27.383Z,67.53
2018-08-24T00:50:56.859Z,66.68
2018-08-24T00:53:26.407Z,66.67
2018-08-24T00:55:55.957Z,67.68
2018-08-24T00:58:25.474Z,67.27
2018-08-24T01:01:00.185Z,67.26
2018-08-24T01:03:30.523Z,66.50
2018-08-24T01:06:00.432Z,68.33
2018-08-24T01:08:30.017Z,68.78
2018-08-24T01:10:59.640Z,69.19
2018-08-24T01:13:29.178Z,69.12
2018-08-24T01:16:01.241Z,69.71
2018-08-24T01:18:36.100Z,71.08
2018-08-24T01:21:05.980Z,71.72
2018-08-24T01:23:35.623Z,73.04
2018-08-24T01:26:06.692Z,73.32
2018-08-24T01:28:36.259Z,73.87
2018-08-24T01:31:07.807Z,73.13
2018-08-24T01:33:37.303Z,74.44
2018-08-24T01:36:06.841Z,73.42
2018-08-24T01:38:36.963Z,74.36
2018-08-24T01:41:06.558Z,74.29
2018-08-24T01:43:36.069Z,73.15
2018-08-24T01:46:09.720Z,73.42
2018-08-24T01:48:40.326Z,73.24
2018-08-24T01:51:10.205Z,73.00
2018-08-24T01:53:40.017Z,72.73
2018-08-24T01:56:09.721Z,72.75
2018-08-24T01:58:39.334Z,74.24
2018-08-24T02:01:08.889Z,73.71
2018-08-24T02:03:38.442Z,73.59
2018-08-24T02:06:08.911Z,74.06
2018-08-24T02:08:38.928Z,74.36
2018-08-24T02:11:13.809Z,73.90
2018-08-24T02:13:48.429Z,73.27
2018-08-24T02:16:18.084Z,73.06
2018-08-24T02:18:54.455Z,73.38
2018-08-24T02:21:29.439Z,73.83
2018-08-24T02:23:59.324Z,73.82
2018-08-24T02:26:28.945Z,72.83
2018-08-24T02:28:58.528Z,73.75
2018-08-24T02:31:32.434Z,72.30
2018-08-24T02:34:02.088Z,72.90
2018-08-24T02:36:31.803Z,72.92
2018-08-24T02:39:01.435Z,72.37
2018-08-24T02:41:31.103Z,72.19
2018-08-24T02:44:00.672Z,73.26
2018-08-24T02:46:30.225Z,72.72
2018-08-24T02:48:59.746Z,72.12
2018-08-24T02:51:29.353Z,72.79
2018-08-24T02:53:59.281Z,73.22
2018-08-24T02:56:28.889Z,72.59
2018-08-24T02:58:58.483Z,74.30
2018-08-24T03:01:27.984Z,73.31
2018-08-24T03:03:57.523Z,73.43
2018-08-24T03:06:28.072Z,73.74
2018-08-24T03:08:57.636Z,73.61
2018-08-24T03:11:27.209Z,73.62
2018-08-24T03:13:57.026Z,73.79
2018-08-24T03:16:26.675Z,73.75
2018-08-24T03:18:56.303Z,73.53
2018-08-24T03:21:25.866Z,73.02
2018-08-24T03:23:55.483Z,73.81
2018-08-24T03:26:25.064Z,73.24
2018-08-24T03:28:54.622Z,72.96
2018-08-24T03:31:24.139Z,73.69
2018-08-24T03:33:53.719Z,73.54
2018-08-24T03:36:23.269Z,73.86
2018-08-24T03:38:53.145Z,72.94
2018-08-24T03:41:22.705Z,73.45
2018-08-24T03:43:52.644Z,72.60
2018-08-24T03:46:22.330Z,73.19
2018-08-24T03:48:51.975Z,72.39
2018-08-24T03:51:21.730Z,73.04
2018-08-24T03:53:51.246Z,72.93
2018-08-24T03:56:20.912Z,73.35
2018-08-24T03:58:50.423Z,73.11
2018-08-24T04:01:20.007Z,72.69
2018-08-24T04:03:49.556Z,73.81
2018-08-24T04:06:19.380Z,73.70
2018-08-24T04:08:48.997Z,72.70
2018-08-24T04:11:18.605Z,73.19
2018-08-24T04:13:48.248Z,74.10
2018-08-24T04:16:17.796Z,73.62
2018-08-24T04:18:47.422Z,73.86
2018-08-24T04:21:17.076Z,73.75
2018-08-24T04:23:46.585Z,74.20
2018-08-24T04:26:16.101Z,74.74
2018-08-24T04:28:45.630Z,74.42
2018-08-24T04:31:15.300Z,74.04
2018-08-24T04:33:44.845Z,74.17
2018-08-24T04:36:14.394Z,74.66
2018-08-24T04:38:43.987Z,75.10
2018-08-24T04:41:13.789Z,75.09
2018-08-24T04:43:43.344Z,74.42
2018-08-24T04:46:12.917Z,73.73
2018-08-24T04:48:42.547Z,74.85
2018-08-24T04:51:12.298Z,74.29
2018-08-24T04:53:42.009Z,74.91
2018-08-24T04:56:11.711Z,74.48
2018-08-24T04:58:41.392Z,74.48
2018-08-24T05:01:10.918Z,73.88
2018-08-24T05:03:40.537Z,74.25
2018-08-24T05:06:10.249Z,73.85
2018-08-24T05:08:39.775Z,74.25
2018-08-24T05:11:09.544Z,73.64
2018-08-24T05:13:39.130Z,74.66
2018-08-24T05:16:08.728Z,75.08
2018-08-24T05:18:38.249Z,75.71
2018-08-24T05:21:07.913Z,75.16
2018-08-24T05:23:37.778Z,74.51
2018-08-24T05:26:07.322Z,75.24
2018-08-24T05:28:36.856Z,74.02
2018-08-24T05:31:07.124Z,74.05
2018-08-24T05:33:36.743Z,73.58
2018-08-24T05:36:06.628Z,74.36
2018-08-24T05:38:36.238Z,74.16
2018-08-24T05:41:05.782Z,73.88
2018-08-24T05:43:35.390Z,73.66
2018-08-24T05:46:05.006Z,74.33
2018-08-24T05:48:34.540Z,74.34
2018-08-24T05:51:04.166Z,73.47
2018-08-24T05:53:33.731Z,74.04
2018-08-24T05:56:03.296Z,74.00
2018-08-24T05:58:32.889Z,74.04
2018-08-24T06:01:02.570Z,73.60
2018-08-24T06:03:32.138Z,73.42
2018-08-24T06:06:02.673Z,73.42
2018-08-24T06:08:32.944Z,73.43
2018-08-24T06:11:03.129Z,73.73
2018-08-24T06:13:33.040Z,73.17
2018-08-24T06:16:02.619Z,73.17
2018-08-24T06:18:32.326Z,72.68
2018-08-24T06:21:01.860Z,72.50
2018-08-24T06:23:31.434Z,72.82
2018-08-24T06:26:01.057Z,72.65
2018-08-24T06:28:30.742Z,72.86
2018-08-24T06:31:00.308Z,73.21
2018-08-24T06:33:30.102Z,73.71
2018-08-24T06:35:59.690Z,73.55
2018-08-24T06:38:29.357Z,72.58
2018-08-24T06:43:55.902Z,72.76
2018-08-24T06:46:25.603Z,72.94
2018-08-24T06:48:55.164Z,72.71
2018-08-24T06:51:24.730Z,72.60
2018-08-24T06:53:58.245Z,71.99
2018-08-24T06:56:27.847Z,72.10
2018-08-24T06:58:58.848Z,71.80
2018-08-24T07:01:28.716Z,72.61
2018-08-24T07:03:58.439Z,72.75
2018-08-24T07:06:28.020Z,72.72
2018-08-24T07:08:57.641Z,72.52
2018-08-24T07:11:27.215Z,71.97
2018-08-24T07:13:57.050Z,72.16
2018-08-24T07:16:26.902Z,71.91
2018-08-24T07:18:56.469Z,71.91
2018-08-24T07:21:26.069Z,72.37
2018-08-24T07:23:55.714Z,72.25
2018-08-24T07:26:25.339Z,71.92
2018-08-24T07:28:54.881Z,71.64
2018-08-24T07:31:24.614Z,71.25
2018-08-24T07:33:54.183Z,71.65
2018-08-24T07:36:23.813Z,70.72
2018-08-24T07:38:53.779Z,72.01
2018-08-24T07:41:23.811Z,71.63
2018-08-24T07:43:53.527Z,72.05
2018-08-24T07:46:23.182Z,72.06
2018-08-24T07:48:52.803Z,71.06
2018-08-24T07:51:22.509Z,71.23
2018-08-24T07:53:52.165Z,72.00
2018-08-24T07:56:21.874Z,72.02
2018-08-24T07:58:54.171Z,72.69
2018-08-24T08:01:23.796Z,72.51
2018-08-24T08:03:53.507Z,73.03
2018-08-24T08:06:23.089Z,73.50
2018-08-24T08:08:53.954Z,72.81
2018-08-24T08:11:23.765Z,73.16
2018-08-24T08:13:53.658Z,72.93
2018-08-24T08:16:23.285Z,71.35
2018-08-24T08:18:52.866Z,72.20
2018-08-24T08:21:22.450Z,71.88
2018-08-24T08:23:52.128Z,71.63
2018-08-24T08:26:21.766Z,71.12
2018-08-24T08:28:51.660Z,70.63
2018-08-24T08:31:21.254Z,69.96
2018-08-24T08:33:50.888Z,69.95
2018-08-24T08:36:20.429Z,69.64
2018-08-24T08:38:50.108Z,69.37
2018-08-24T08:41:19.997Z,69.59
2018-08-24T08:43:49.654Z,69.04
2018-08-24T08:46:19.206Z,68.37
2018-08-24T08:48:52.085Z,68.46
2018-08-24T08:51:21.900Z,67.70
2018-08-24T08:53:54.766Z,68.23
2018-08-24T08:56:24.569Z,67.46
2018-08-24T08:59:02.279Z,67.82
2018-08-24T09:01:35.090Z,68.72
2018-08-24T09:04:08.589Z,68.24
2018-08-24T09:06:40.720Z,68.67
2018-08-24T09:09:11.249Z,70.06
2018-08-24T09:11:42.073Z,70.75
2018-08-24T09:14:13.207Z,70.22
2018-08-24T09:16:49.667Z,71.22
2018-08-24T09:19:24.810Z,69.49
2018-08-24T09:21:59.873Z,69.48
2018-08-24T09:25:32.405Z,69.50
2018-08-24T09:28:39.441Z,69.85
2018-08-24T09:31:17.262Z,69.47
2018-08-24T09:33:50.342Z,69.18
2018-08-24T09:36:24.702Z,69.50
2018-08-24T09:38:58.528Z,68.93
2018-08-24T09:41:29.140Z,68.75
2018-08-24T09:43:59.867Z,67.65
2018-08-24T09:46:38.066Z,67.46
2018-08-24T09:49:13.643Z,67.58
2018-08-24T09:51:45.469Z,66.77
2018-08-24T09:54:21.248Z,67.06
2018-08-24T09:56:53.245Z,65.55
2018-08-24T09:59:24.040Z,65.01
2018-08-24T10:02:01.036Z,64.08
2018-08-24T10:04:35.878Z,63.10
2018-08-24T10:07:10.733Z,63.29
2018-08-24T10:09:40.453Z,61.54
2018-08-24T10:12:10.019Z,60.87
2018-08-24T10:14:39.839Z,61.65
2018-08-24T10:17:09.773Z,59.62
2018-08-24T10:19:39.933Z,57.70
2018-08-24T10:22:09.889Z,58.69
2018-08-24T10:24:39.509Z,59.00
2018-08-24T10:27:15.468Z,58.28
2018-08-24T10:29:48.108Z,57.93
2018-08-24T10:32:18.595Z,56.69
2018-08-24T10:34:48.531Z,54.53
2018-08-24T10:37:18.456Z,55.73
2018-08-24T10:39:48.200Z,55.47
2018-08-24T10:42:17.866Z,54.94
2018-08-24T10:44:47.401Z,55.18
2018-08-24T10:47:17.378Z,54.36
2018-08-24T10:49:47.146Z,51.63
2018-08-24T10:52:17.149Z,52.46
2018-08-24T10:54:47.549Z,51.78
2018-08-24T10:57:17.422Z,52.40
2018-08-24T10:59:47.010Z,51.54
2018-08-24T11:02:17.813Z,52.43
2018-08-24T11:04:48.232Z,51.67
2018-08-24T11:07:18.837Z,50.81
2018-08-24T11:09:48.759Z,51.47
2018-08-24T11:12:18.640Z,50.54
2018-08-24T11:14:48.778Z,50.60
2018-08-24T11:17:18.609Z,50.32
2018-08-24T11:19:49.937Z,50.53
2018-08-24T11:22:21.931Z,49.29
2018-08-24T11:24:52.187Z,45.77
2018-08-24T11:27:21.761Z,44.86
2018-08-24T11:29:51.480Z,44.00
2018-08-24T11:32:21.137Z,41.99
2018-08-24T11:34:51.171Z,43.47
2018-08-24T11:37:20.711Z,42.62
2018-08-24T11:39:50.501Z,42.12
2018-08-24T11:42:20.212Z,41.99
2018-08-24T11:44:49.727Z,41.79
2018-08-24T11:47:20.925Z,42.44
2018-08-24T11:49:51.744Z,41.63
2018-08-24T11:52:22.783Z,42.29
2018-08-24T11:54:52.495Z,40.84
2018-08-24T11:57:22.408Z,41.13
2018-08-24T11:59:52.458Z,42.44
2018-08-24T12:02:22.163Z,41.53
2018-08-24T12:04:51.980Z,40.64
2018-08-24T12:07:21.570Z,40.08
2018-08-24T12:09:51.197Z,41.16
2018-08-24T12:12:21.289Z,39.97
2018-08-24T12:14:50.822Z,40.96
2018-08-24T12:17:24.844Z,40.27
2018-08-24T12:19:55.078Z,40.34
2018-08-24T12:22:24.835Z,39.51
2018-08-24T12:25:01.207Z,39.88
2018-08-24T12:27:31.100Z,39.11
2018-08-24T12:30:00.609Z,37.78
2018-08-24T12:32:30.232Z,37.54
2018-08-24T12:35:04.061Z,38.32
2018-08-24T12:37:38.901Z,38.63
2018-08-24T12:40:09.094Z,39.54
2018-08-24T12:42:38.635Z,39.42
2018-08-24T12:45:08.213Z,38.61
2018-08-24T12:47:37.785Z,39.53
2018-08-24T12:50:08.905Z,39.44
2018-08-24T12:52:38.996Z,39.68
2018-08-24T12:55:10.271Z,39.51
2018-08-24T12:57:39.807Z,40.37
2018-08-24T13:00:09.796Z,41.00
2018-08-24T13:02:39.353Z,40.14
2018-08-24T13:05:09.269Z,41.09
2018-08-24T13:07:38.845Z,40.80
2018-08-24T13:10:09.079Z,40.44
2018-08-24T13:12:38.720Z,40.68
2018-08-24T13:15:08.321Z,40.20
2018-08-24T13:17:38.058Z,40.12
2018-08-24T13:20:07.597Z,38.96
2018-08-24T13:22:37.138Z,39.43
2018-08-24T13:25:06.961Z,39.92
2018-08-24T13:27:36.546Z,39.45
2018-08-24T13:30:06.679Z,39.83
2018-08-24T13:32:36.749Z,39.91
2018-08-24T13:35:07.240Z,38.91
2018-08-24T13:37:36.770Z,39.05
2018-08-24T13:40:06.978Z,39.39
2018-08-24T13:42:36.523Z,39.89
2018-08-24T13:45:06.112Z,39.46
2018-08-24T13:47:35.793Z,39.38
2018-08-24T13:50:06.373Z,38.70
2018-08-24T13:52:35.937Z,39.72
2018-08-24T13:55:05.587Z,38.96
2018-08-24T13:57:35.100Z,38.32
2018-08-24T14:00:05.093Z,39.88
2018-08-24T14:02:35.181Z,38.39
2018-08-24T14:05:04.905Z,38.61
2018-08-24T14:07:34.782Z,36.27
2018-08-24T14:10:04.658Z,36.73
2018-08-24T14:12:34.359Z,36.54
2018-08-24T14:15:04.066Z,35.19
2018-08-24T14:17:33.702Z,36.24
2018-08-24T14:20:03.787Z,36.85
2018-08-24T14:22:33.299Z,37.57
2018-08-24T14:25:02.863Z,37.59
2018-08-24T14:27:32.394Z,35.58
2018-08-24T14:30:01.902Z,35.52
2018-08-24T14:32:34.778Z,35.84
2018-08-24T14:35:05.180Z,35.55
2018-08-24T14:37:34.745Z,36.49
2018-08-24T14:40:04.970Z,37.92
2018-08-24T14:42:34.976Z,38.68
2018-08-24T14:45:04.646Z,39.47
2018-08-24T14:47:35.660Z,39.55
2018-08-24T14:50:05.894Z,39.46
2018-08-24T14:52:35.523Z,40.78
2018-08-24T14:55:06.333Z,40.34
2018-08-24T14:57:36.349Z,39.79
2018-08-24T15:00:06.683Z,39.81
2018-08-24T15:02:36.669Z,39.99
2018-08-24T15:05:09.537Z,39.36
2018-08-24T15:07:39.138Z,39.23
2018-08-24T15:10:10.229Z,40.10
2018-08-24T15:12:40.564Z,40.25
2018-08-24T15:15:10.258Z,39.59
2018-08-24T15:17:47.954Z,39.37
2018-08-24T15:20:17.756Z,38.02
2018-08-24T15:22:47.607Z,39.32
2018-08-24T15:25:17.622Z,38.31
2018-08-24T15:27:47.318Z,38.85
2018-08-24T15:30:21.330Z,37.94
2018-08-24T15:32:51.097Z,37.55
2018-08-24T15:35:20.793Z,38.61
2018-08-24T15:37:55.812Z,38.13
2018-08-24T15:40:25.618Z,39.11
2018-08-24T15:42:57.421Z,39.91
2018-08-24T15:45:27.566Z,40.14
2018-08-24T15:47:57.085Z,39.79
2018-08-24T15:50:26.692Z,38.77
2018-08-24T15:52:56.326Z,39.44
2018-08-24T15:55:25.906Z,39.15
2018-08-24T15:57:55.580Z,39.79
2018-08-24T16:00:25.206Z,39.83
2018-08-24T16:02:54.893Z,40.50
2018-08-24T16:05:25.651Z,40.65
2018-08-24T16:07:55.138Z,39.19
2018-08-24T16:10:24.717Z,39.95
2018-08-24T16:12:54.304Z,39.91
2018-08-24T16:15:23.832Z,39.35
2018-08-24T16:17:58.766Z,40.15
2018-08-24T16:20:28.482Z,38.33
2018-08-24T16:22:58.036Z,38.43
2018-08-24T16:25:27.638Z,37.25
2018-08-24T16:27:57.322Z,37.72
2018-08-24T16:30:26.840Z,37.04
2018-08-24T16:32:56.389Z,36.81
2018-08-24T16:35:25.966Z,37.19
2018-08-24T16:37:55.546Z,36.87
2018-08-24T16:40:25.070Z,37.15
2018-08-24T16:42:54.600Z,36.88
2018-08-24T16:45:24.478Z,36.92
2018-08-24T16:47:54.124Z,38.15
2018-08-24T16:50:23.673Z,37.82
2018-08-24T16:52:53.250Z,38.56
2018-08-24T16:55:22.978Z,38.01
2018-08-24T16:57:53.294Z,38.26
2018-08-24T17:00:22.794Z,38.96
2018-08-24T17:02:52.538Z,38.25
2018-08-24T17:05:22.430Z,39.00
2018-08-24T17:07:51.968Z,38.01
2018-08-24T17:10:21.579Z,38.34
2018-08-24T17:12:51.412Z,37.71
2018-08-24T17:15:21.421Z,38.29
2018-08-24T17:17:51.161Z,37.76
2018-08-24T17:20:20.848Z,38.09
2018-08-24T17:22:50.481Z,38.28
2018-08-24T17:25:20.574Z,37.35
2018-08-24T17:27:50.308Z,37.58
2018-08-24T17:30:19.881Z,38.35
2018-08-24T17:32:49.429Z,38.88
2018-08-24T17:35:19.193Z,38.19
2018-08-24T17:37:48.858Z,38.33
2018-08-24T17:40:18.608Z,38.99
2018-08-24T17:42:48.241Z,38.97
2018-08-24T17:45:17.928Z,39.41
2018-08-24T17:47:47.696Z,39.36
2018-08-24T17:50:17.232Z,39.71
2018-08-24T17:52:47.001Z,39.44
2018-08-24T17:55:18.243Z,39.33
2018-08-24T17:57:47.950Z,39.20
2018-08-24T18:00:17.489Z,40.10
2018-08-24T18:02:47.078Z,40.06
2018-08-24T18:05:16.873Z,40.03
2018-08-24T18:07:46.447Z,39.48
2018-08-24T18:10:16.040Z,40.63
2018-08-24T18:12:45.938Z,39.66
2018-08-24T18:15:15.666Z,40.16
2018-08-24T18:17:45.409Z,40.31
2018-08-24T18:20:15.012Z,39.96
2018-08-24T18:22:44.572Z,40.78
2018-08-24T18:25:14.175Z,40.95
2018-08-24T18:27:43.786Z,41.55
2018-08-24T18:30:13.418Z,41.77
2018-08-24T18:32:43.150Z,42.43
2018-08-24T18:35:12.916Z,43.06
2018-08-24T18:37:42.516Z,42.64
2018-08-24T18:40:12.035Z,42.48
2018-08-24T18:42:41.718Z,43.19
2018-08-24T18:45:11.390Z,42.97
2018-08-24T18:47:40.998Z,42.87
2018-08-24T18:50:10.644Z,44.22
2018-08-24T18:52:40.291Z,43.55
2018-08-24T18:55:09.888Z,44.26
2018-08-24T18:57:39.446Z,44.09
2018-08-24T19:00:09.202Z,44.57
2018-08-24T19:02:38.801Z,44.81
2018-08-24T19:05:08.361Z,44.88
2018-08-24T19:07:37.951Z,43.98
2018-08-24T19:10:07.660Z,44.43
2018-08-24T19:12:37.181Z,45.36
2018-08-24T19:15:07.239Z,45.54
2018-08-24T19:17:41.889Z,44.65
2018-08-24T19:20:16.746Z,44.29
2018-08-24T19:22:52.731Z,44.64
2018-08-24T19:25:22.270Z,44.19
2018-08-24T19:27:57.086Z,44.83
2018-08-24T19:30:31.971Z,44.31
2018-08-24T19:33:01.795Z,43.95
2018-08-24T19:35:32.133Z,44.25
2018-08-24T19:38:01.718Z,44.99
2018-08-24T19:40:36.869Z,44.46
2018-08-24T19:43:07.302Z,45.37
2018-08-24T19:45:36.819Z,45.39
2018-08-24T19:48:11.594Z,45.80
2018-08-24T19:50:41.356Z,46.53
2018-08-24T19:53:11.042Z,46.58
2018-08-24T19:55:40.564Z,46.93
2018-08-24T19:58:15.182Z,47.14
2018-08-24T20:00:44.919Z,46.71
2018-08-24T20:03:14.660Z,46.47
2018-08-24T20:05:48.278Z,46.17
2018-08-24T20:08:23.182Z,46.49
2018-08-24T20:10:52.946Z,46.80
2018-08-24T20:13:22.523Z,47.10
2018-08-24T20:15:57.258Z,47.67
2018-08-24T20:18:26.801Z,46.88
2018-08-24T20:20:56.543Z,47.50
2018-08-24T20:23:26.097Z,47.13
2018-08-24T20:25:55.650Z,47.07
2018-08-24T20:28:25.254Z,46.91
2018-08-24T20:30:54.936Z,46.35
2018-08-24T20:33:24.448Z,47.27
2018-08-24T20:35:53.998Z,46.79
2018-08-24T20:38:23.909Z,46.75
2018-08-24T20:40:53.904Z,46.85
2018-08-24T20:43:23.416Z,47.08
2018-08-24T20:45:52.932Z,47.40
2018-08-24T20:48:22.524Z,47.47
2018-08-24T20:50:52.020Z,47.05
2018-08-24T20:53:21.704Z,46.68
2018-08-24T20:55:51.476Z,47.20
2018-08-24T20:58:21.033Z,47.41
2018-08-24T21:00:50.611Z,47.26
2018-08-24T21:03:20.141Z,47.98
2018-08-24T21:05:49.715Z,47.11
2018-08-24T21:08:19.454Z,47.70
2018-08-24T21:10:49.146Z,48.24
2018-08-24T21:13:18.726Z,48.51
2018-08-24T21:15:48.242Z,48.15
2018-08-24T21:18:17.960Z,47.73
2018-08-24T21:20:47.513Z,47.54
2018-08-24T21:23:17.035Z,47.60
2018-08-24T21:25:46.570Z,48.26
2018-08-24T21:28:16.068Z,48.46
2018-08-24T21:30:45.583Z,48.24
2018-08-24T21:33:15.203Z,47.83
2018-08-24T21:35:44.743Z,49.08
2018-08-24T21:38:14.595Z,48.40
2018-08-24T21:40:44.186Z,49.08
2018-08-24T21:43:14.076Z,48.39
2018-08-24T21:45:43.599Z,48.46
2018-08-24T21:48:13.119Z,48.31
2018-08-24T21:50:43.005Z,49.02
2018-08-24T21:53:12.590Z,48.53
2018-08-24T21:55:42.408Z,48.98
2018-08-24T21:58:12.118Z,49.41
2018-08-24T22:00:42.794Z,49.60
2018-08-24T22:03:13.534Z,49.54
2018-08-24T22:05:43.266Z,49.66
2018-08-24T22:08:12.812Z,49.55
2018-08-24T22:10:42.424Z,49.57
2018-08-24T22:13:11.968Z,49.11
2018-08-24T22:15:41.533Z,49.39
2018-08-24T22:18:12.354Z,49.32
2018-08-24T22:20:41.900Z,50.49
2018-08-24T22:23:11.838Z,50.26
2018-08-24T22:25:42.073Z,50.44
2018-08-24T22:28:11.562Z,50.53
2018-08-24T22:30:44.228Z,50.28
2018-08-24T22:33:14.077Z,50.58
2018-08-24T22:35:44.086Z,50.59
2018-08-24T22:38:13.679Z,50.68
2018-08-24T22:40:44.029Z,50.07
2018-08-24T22:43:19.357Z,51.19
2018-08-24T22:45:48.907Z,50.71
2018-08-24T22:48:18.589Z,51.31
2018-08-24T22:50:48.175Z,51.50
2018-08-24T22:53:17.789Z,51.14
2018-08-24T22:55:47.316Z,51.18
2018-08-24T22:58:16.926Z,51.04
2018-08-24T23:00:46.781Z,51.48
2018-08-24T23:03:16.474Z,51.17
2018-08-24T23:05:46.230Z,51.87
2018-08-24T23:08:15.962Z,51.11
2018-08-24T23:10:45.622Z,51.67
2018-08-24T23:13:15.161Z,51.32
2018-08-24T23:15:44.717Z,51.32
2018-08-24T23:18:14.252Z,51.68
2018-08-24T23:20:43.837Z,51.31
2018-08-24T23:23:13.405Z,51.00
2018-08-24T23:25:42.894Z,51.10
2018-08-24T23:28:12.726Z,51.29
2018-08-24T23:30:42.566Z,51.57
2018-08-24T23:33:12.266Z,51.34
2018-08-24T23:35:42.226Z,50.30
2018-08-24T23:38:11.718Z,50.91
2018-08-24T23:40:41.253Z,50.45
2018-08-24T23:43:10.809Z,50.43
2018-08-24T23:45:40.540Z,50.48
2018-08-24T23:48:10.090Z,50.24
2018-08-24T23:50:39.604Z,49.50
2018-08-24T23:53:09.221Z,49.94
2018-08-24T23:55:38.884Z,50.16
2018-08-24T23:58:08.649Z,49.37
